Time;durP1;ratioP1;P1;durP2;ratioP2;P2;SDS_P1;SDS_P2;PMS_P1;PMS_P2;Temp;Humidity;BMP_temperature;BMP_pressure;BME280_temperature;BME280_humidity;BME280_pressure;Samples;Min_cycle;Max_cycle;Signal;HPM_P1;HPM_P2
2024/01/06 00:01:01;;;;;;;18.05;11.57;;;2.80;99.90;;;;;;5096356;27;20576;-86
2024/01/06 00:03:27;;;;;;;17.33;10.98;;;2.00;99.90;;;;;;5113104;27;20067;-86
2024/01/06 00:05:52;;;;;;;18.83;11.60;;;2.40;99.90;;;;;;5113658;28;20470;-87
2024/01/06 00:08:18;;;;;;;19.77;11.80;;;1.90;99.90;;;;;;5096371;28;20035;-86
2024/01/06 00:10:44;;;;;;;18.17;11.23;;;2.00;99.90;;;;;;5112711;28;20557;-87
2024/01/06 00:13:10;;;;;;;17.42;11.70;;;1.90;99.90;;;;;;5109764;28;20471;-86
2024/01/06 00:15:36;;;;;;;18.40;10.90;;;1.90;99.90;;;;;;5100084;28;20513;-86
2024/01/06 00:18:02;;;;;;;16.20;10.43;;;1.90;99.90;;;;;;5095893;28;20036;-87
2024/01/06 00:20:28;;;;;;;19.05;10.40;;;1.90;99.90;;;;;;5095910;28;20432;-87
2024/01/06 00:22:53;;;;;;;14.68;9.25;;;1.90;99.90;;;;;;5095921;28;20035;-87
2024/01/06 00:25:19;;;;;;;16.80;10.40;;;1.90;99.90;;;;;;5113034;28;20035;-86
2024/01/06 00:27:44;;;;;;;16.83;10.55;;;1.90;99.90;;;;;;5112710;28;20027;-86
2024/01/06 00:30:10;;;;;;;19.27;11.43;;;1.90;99.90;;;;;;5112974;28;20031;-86
2024/01/06 00:32:36;;;;;;;18.30;11.38;;;1.80;99.90;;;;;;5096437;28;20400;-86
2024/01/06 00:35:02;;;;;;;18.50;10.10;;;1.80;99.90;;;;;;5094953;28;20046;-87
2024/01/06 00:37:28;;;;;;;18.40;11.27;;;1.90;99.90;;;;;;5112991;28;20076;-87
2024/01/06 00:39:53;;;;;;;15.75;10.65;;;1.90;99.90;;;;;;5112634;28;20035;-87
2024/01/06 00:42:19;;;;;;;15.80;10.13;;;1.80;99.90;;;;;;5112252;28;20428;-86
2024/01/06 00:44:45;;;;;;;17.60;11.13;;;1.80;99.90;;;;;;5095972;28;20035;-85
2024/01/06 00:47:11;;;;;;;14.40;9.93;;;1.90;99.90;;;;;;5086473;28;20032;-85
2024/01/06 00:49:37;;;;;;;16.80;10.13;;;1.90;99.90;;;;;;5109224;28;20048;-87
2024/01/06 00:52:02;;;;;;;15.00;10.25;;;1.80;99.90;;;;;;5112154;28;20035;-87
2024/01/06 00:54:29;;;;;;;14.40;9.27;;;1.80;99.90;;;;;;5094828;28;20035;-87
2024/01/06 00:56:54;;;;;;;14.52;9.52;;;1.80;99.90;;;;;;5086631;28;20047;-86
2024/01/06 00:59:20;;;;;;;16.40;10.20;;;1.80;99.90;;;;;;5105616;28;20035;-87
2024/01/06 01:01:45;;;;;;;16.58;10.48;;;1.80;99.90;;;;;;5095430;28;20034;-86
2024/01/06 01:04:11;;;;;;;18.25;10.30;;;1.80;99.90;;;;;;5112081;28;20038;-86
2024/01/06 01:06:37;;;;;;;17.63;11.52;;;1.80;99.90;;;;;;5112955;28;20031;-87
2024/01/06 01:09:04;;;;;;;19.15;11.80;;;1.80;99.90;;;;;;5112603;28;20043;-86
2024/01/06 01:11:30;;;;;;;15.95;10.18;;;1.80;99.90;;;;;;5113379;27;20050;-86
2024/01/06 01:13:55;;;;;;;16.80;10.45;;;1.80;99.90;;;;;;5115973;27;20036;-87
2024/01/06 01:16:21;;;;;;;14.95;10.02;;;1.80;99.90;;;;;;5116192;27;20035;-86
2024/01/06 01:18:47;;;;;;;14.27;9.45;;;1.70;99.90;;;;;;5098967;27;20114;-89
2024/01/06 01:21:12;;;;;;;16.23;9.70;;;1.70;99.90;;;;;;5116032;27;20042;-87
2024/01/06 01:23:38;;;;;;;15.60;10.05;;;1.70;99.90;;;;;;5098847;27;20050;-87
2024/01/06 01:26:04;;;;;;;16.92;10.63;;;1.60;99.90;;;;;;5098835;27;20514;-87
2024/01/06 01:28:30;;;;;;;17.40;10.88;;;1.60;99.90;;;;;;5115683;27;20501;-85
2024/01/06 01:30:55;;;;;;;19.42;11.00;;;1.60;99.90;;;;;;5098815;27;20447;-87
2024/01/06 01:33:21;;;;;;;16.50;10.60;;;1.60;99.90;;;;;;5115482;27;20035;-87
2024/01/06 01:35:47;;;;;;;18.65;11.80;;;1.60;99.90;;;;;;5115980;27;20505;-86
2024/01/06 01:38:12;;;;;;;17.50;10.65;;;1.60;99.90;;;;;;5115864;27;20465;-86
2024/01/06 01:40:38;;;;;;;16.58;10.52;;;1.70;99.90;;;;;;5099268;27;20038;-87
2024/01/06 01:43:03;;;;;;;13.95;9.27;;;2.70;99.90;;;;;;5115642;27;20122;-86
2024/01/06 01:45:29;;;;;;;15.93;9.45;;;2.60;99.90;;;;;;5098587;27;20122;-86
2024/01/06 01:47:55;;;;;;;14.15;9.30;;;1.60;99.90;;;;;;5115585;27;20494;-87
2024/01/06 01:50:22;;;;;;;15.02;9.27;;;1.60;99.90;;;;;;5098912;27;20066;-86
2024/01/06 01:52:48;;;;;;;14.95;9.70;;;1.50;99.90;;;;;;5115343;27;20579;-86
2024/01/06 01:55:14;;;;;;;16.05;9.40;;;1.50;99.90;;;;;;5115428;27;20035;-86
2024/01/06 01:57:40;;;;;;;14.50;9.93;;;2.50;99.90;;;;;;5115651;27;20046;-86
2024/01/06 02:00:07;;;;;;;14.40;9.32;;;1.50;99.90;;;;;;5115162;27;20039;-85
2024/01/06 02:02:32;;;;;;;14.85;9.80;;;1.50;99.90;;;;;;5115560;27;20114;-86
2024/01/06 02:04:59;;;;;;;15.60;9.85;;;1.50;99.90;;;;;;5098144;27;20553;-86
2024/01/06 02:07:25;;;;;;;14.00;9.45;;;1.50;99.90;;;;;;5098582;27;20031;-86
2024/01/06 02:09:50;;;;;;;14.95;9.50;;;1.60;99.90;;;;;;5115112;27;20096;-86
2024/01/06 02:12:16;;;;;;;15.45;9.93;;;1.60;99.90;;;;;;5115738;27;20058;-85
2024/01/06 02:14:43;;;;;;;14.55;9.40;;;1.50;99.90;;;;;;5098056;27;20058;-87
2024/01/06 02:17:08;;;;;;;17.40;10.45;;;1.50;99.90;;;;;;5115366;27;20543;-86
2024/01/06 02:19:35;;;;;;;16.63;9.95;;;1.60;99.90;;;;;;5100410;27;20047;-86
2024/01/06 02:22:00;;;;;;;14.07;9.10;;;1.60;99.90;;;;;;5114830;27;20039;-86
2024/01/06 02:24:26;;;;;;;15.55;9.43;;;1.50;99.90;;;;;;5114379;27;20038;-88
2024/01/06 02:26:51;;;;;;;19.08;10.18;;;1.50;99.90;;;;;;5115350;27;20469;-88
2024/01/06 02:29:17;;;;;;;14.95;9.30;;;1.50;99.90;;;;;;5115034;27;20035;-86
2024/01/06 02:31:43;;;;;;;18.13;10.35;;;1.50;99.90;;;;;;5098011;27;20121;-86
2024/01/06 02:34:09;;;;;;;15.45;10.02;;;1.50;99.90;;;;;;5099105;27;20039;-86
2024/01/06 02:36:35;;;;;;;17.27;10.40;;;1.50;99.90;;;;;;5115019;27;20038;-86
2024/01/06 02:39:01;;;;;;;15.95;9.93;;;1.50;99.90;;;;;;5114568;27;20034;-86
2024/01/06 02:41:26;;;;;;;15.98;10.27;;;1.40;99.90;;;;;;5097918;27;20031;-88
2024/01/06 02:43:54;;;;;;;17.08;10.25;;;1.40;99.90;;;;;;5114199;27;20047;-88
2024/01/06 02:46:19;;;;;;;15.82;10.30;;;1.40;99.90;;;;;;5115122;27;20050;-88
2024/01/06 02:48:45;;;;;;;17.40;10.50;;;1.40;99.90;;;;;;5097995;27;20045;-87
2024/01/06 02:51:12;;;;;;;17.77;10.87;;;1.40;99.90;;;;;;5114292;27;20039;-86
2024/01/06 02:53:38;;;;;;;18.10;10.40;;;1.40;99.90;;;;;;5132280;27;20075;-86
2024/01/06 02:56:04;;;;;;;18.25;10.60;;;1.40;99.90;;;;;;5114669;27;20047;-87
2024/01/06 02:58:29;;;;;;;19.93;9.97;;;1.30;99.90;;;;;;5097451;27;20023;-87
2024/01/06 03:00:55;;;;;;;17.10;10.43;;;1.30;99.90;;;;;;5114678;27;20517;-87
2024/01/06 03:03:21;;;;;;;19.63;10.10;;;1.30;99.90;;;;;;5114204;27;20038;-87
2024/01/06 03:05:48;;;;;;;15.15;9.18;;;1.30;99.90;;;;;;5114380;27;20446;-86
2024/01/06 03:08:15;;;;;;;13.88;9.05;;;1.30;99.90;;;;;;5114204;27;20046;-88
2024/01/06 03:10:41;;;;;;;14.32;9.35;;;1.20;99.90;;;;;;5097350;27;20339;-88
2024/01/06 03:13:06;;;;;;;15.10;9.60;;;1.20;99.90;;;;;;5113681;27;20039;-88
2024/01/06 03:15:32;;;;;;;17.30;9.87;;;1.20;99.90;;;;;;5097040;27;20027;-87
2024/01/06 03:17:57;;;;;;;14.87;8.80;;;1.20;99.90;;;;;;5111929;27;20114;-87
2024/01/06 03:20:23;;;;;;;14.80;9.43;;;1.20;99.90;;;;;;5113293;27;20031;-87
2024/01/06 03:22:49;;;;;;;16.30;9.90;;;1.20;99.90;;;;;;5096707;27;20316;-88
2024/01/06 03:25:15;;;;;;;15.83;9.70;;;1.20;99.90;;;;;;5114006;27;20031;-88
2024/01/06 03:27:40;;;;;;;16.47;9.90;;;1.20;99.90;;;;;;5096864;27;20038;-88
2024/01/06 03:30:06;;;;;;;17.30;10.23;;;1.20;99.90;;;;;;5113777;27;20044;-88
2024/01/06 03:32:32;;;;;;;18.30;10.23;;;1.10;99.90;;;;;;5113937;27;20031;-88
2024/01/06 03:34:58;;;;;;;15.93;10.30;;;1.10;99.90;;;;;;5113387;28;20051;-87
2024/01/06 03:37:24;;;;;;;16.60;10.15;;;1.10;99.90;;;;;;5096849;27;20126;-89
2024/01/06 03:39:49;;;;;;;19.77;10.90;;;1.10;99.90;;;;;;5113825;27;20027;-87
2024/01/06 03:42:15;;;;;;;24.20;11.50;;;1.10;99.90;;;;;;5096682;27;20088;-87
2024/01/06 03:44:41;;;;;;;18.17;10.60;;;1.10;99.90;;;;;;5113415;27;20028;-87
2024/01/06 03:47:06;;;;;;;19.33;10.70;;;1.10;99.90;;;;;;5113782;27;20407;-87
2024/01/06 03:49:32;;;;;;;19.73;10.90;;;1.10;99.90;;;;;;5113632;28;20522;-86
2024/01/06 03:51:57;;;;;;;20.67;11.57;;;1.10;99.90;;;;;;5096514;28;20095;-87
2024/01/06 03:54:23;;;;;;;18.13;11.20;;;1.10;99.90;;;;;;5113296;28;20027;-87
2024/01/06 03:56:49;;;;;;;19.03;12.10;;;1.10;99.90;;;;;;5113130;27;20039;-87
2024/01/06 03:59:15;;;;;;;19.93;10.90;;;1.10;99.90;;;;;;5096883;28;20038;-86
2024/01/06 04:01:41;;;;;;;22.37;13.07;;;2.00;99.90;;;;;;5132095;27;20023;-87
2024/01/06 04:04:07;;;;;;;23.37;12.97;;;1.10;99.90;;;;;;5110244;28;20044;-87
2024/01/06 04:06:32;;;;;;;23.30;13.10;;;1.10;99.90;;;;;;5107868;28;20080;-86
2024/01/06 04:08:58;;;;;;;23.20;13.17;;;1.20;99.90;;;;;;5113066;28;20471;-86
2024/01/06 04:11:24;;;;;;;22.10;12.20;;;1.10;99.90;;;;;;5112939;28;20038;-86
2024/01/06 04:13:49;;;;;;;21.20;12.80;;;1.10;99.90;;;;;;5112952;28;20049;-86
2024/01/06 04:16:15;;;;;;;22.13;13.33;;;1.10;99.90;;;;;;5096718;28;20525;-87
2024/01/06 04:18:41;;;;;;;22.25;12.20;;;1.10;99.90;;;;;;5113141;28;20031;-86
2024/01/06 04:21:06;;;;;;;19.07;12.07;;;1.10;99.90;;;;;;5096248;28;20027;-87
2024/01/06 04:23:32;;;;;;;20.50;11.97;;;1.10;99.90;;;;;;5112926;27;20031;-88
2024/01/06 04:25:57;;;;;;;20.67;12.35;;;1.10;99.90;;;;;;5112965;28;20074;-87
2024/01/06 04:28:23;;;;;;;18.52;11.40;;;1.10;99.90;;;;;;5113344;28;20109;-87
2024/01/06 04:30:49;;;;;;;20.50;11.50;;;1.10;99.90;;;;;;5095941;28;20168;-86
2024/01/06 04:33:14;;;;;;;19.43;11.37;;;1.00;99.90;;;;;;5113001;28;20498;-87
2024/01/06 04:35:40;;;;;;;21.60;12.13;;;1.10;99.90;;;;;;5097749;28;20047;-87
2024/01/06 04:38:06;;;;;;;19.57;12.33;;;1.00;99.90;;;;;;5109847;28;20488;-87
2024/01/06 04:40:31;;;;;;;19.67;11.75;;;1.00;99.90;;;;;;5113118;28;20031;-85
2024/01/06 04:42:57;;;;;;;17.53;11.37;;;1.00;99.90;;;;;;5112854;28;20513;-86
2024/01/06 04:45:24;;;;;;;20.40;11.60;;;1.00;99.90;;;;;;5096207;28;20042;-87
2024/01/06 04:47:50;;;;;;;18.67;11.63;;;1.00;99.90;;;;;;5116228;27;20521;-86
2024/01/06 04:50:17;;;;;;;19.00;12.23;;;1.00;99.90;;;;;;5117167;27;20399;-87
2024/01/06 04:52:43;;;;;;;19.10;11.83;;;1.00;99.90;;;;;;5116586;27;20043;-87
2024/01/06 04:55:09;;;;;;;21.53;11.93;;;1.00;99.90;;;;;;5116220;27;20122;-87
2024/01/06 04:57:35;;;;;;;18.07;11.87;;;1.00;99.90;;;;;;5099839;27;20518;-87
2024/01/06 05:00:01;;;;;;;20.97;12.30;;;1.00;99.90;;;;;;5116481;27;20050;-87
2024/01/06 05:02:26;;;;;;;17.97;11.43;;;1.10;99.90;;;;;;5116587;27;20027;-87
2024/01/06 05:04:52;;;;;;;18.30;11.07;;;1.00;99.90;;;;;;5116262;27;20035;-87
2024/01/06 05:07:18;;;;;;;21.60;11.73;;;1.00;99.90;;;;;;5116584;27;20038;-86
2024/01/06 05:09:43;;;;;;;19.90;11.43;;;1.10;99.90;;;;;;5098775;27;20034;-87
2024/01/06 05:12:09;;;;;;;21.03;11.93;;;1.10;99.90;;;;;;5116043;27;20047;-86
2024/01/06 05:14:34;;;;;;;21.30;11.37;;;1.10;99.90;;;;;;5099087;27;20039;-86
2024/01/06 05:17:00;;;;;;;17.90;11.10;;;1.10;99.90;;;;;;5116316;27;20035;-86
2024/01/06 05:19:26;;;;;;;21.40;11.87;;;1.10;99.90;;;;;;5116813;27;20505;-87
2024/01/06 05:21:52;;;;;;;19.13;11.67;;;1.10;99.90;;;;;;5116113;27;20028;-87
2024/01/06 05:24:19;;;;;;;18.80;11.83;;;1.10;99.90;;;;;;5098895;27;20570;-86
2024/01/06 05:26:44;;;;;;;20.13;12.02;;;1.10;99.90;;;;;;5116011;27;20031;-87
2024/01/06 05:29:10;;;;;;;21.10;11.67;;;1.10;99.90;;;;;;5098635;27;20521;-87
2024/01/06 05:31:36;;;;;;;19.27;11.27;;;1.00;99.90;;;;;;5116204;27;20053;-85
2024/01/06 05:34:01;;;;;;;18.80;10.80;;;1.10;99.90;;;;;;5115665;27;20043;-87
2024/01/06 05:36:27;;;;;;;21.50;10.77;;;1.00;99.90;;;;;;5115662;27;20027;-86
2024/01/06 05:38:53;;;;;;;18.77;11.20;;;1.00;99.90;;;;;;5115420;27;20099;-86
2024/01/06 05:41:18;;;;;;;21.80;10.97;;;1.00;99.90;;;;;;5099024;27;20027;-86
2024/01/06 05:43:44;;;;;;;20.17;10.90;;;1.10;99.90;;;;;;5115647;27;20039;-86
2024/01/06 05:46:10;;;;;;;20.47;11.60;;;1.10;99.90;;;;;;5107327;27;20396;-86
2024/01/06 05:48:36;;;;;;;19.07;10.67;;;1.10;99.90;;;;;;5133960;27;20023;-85
2024/01/06 05:51:05;;;;;;;17.37;9.90;;;1.10;99.90;;;;;;5115476;27;20042;-86
2024/01/06 05:53:31;;;;;;;18.13;10.73;;;1.10;99.90;;;;;;5115268;27;20420;-86
2024/01/06 05:55:57;;;;;;;16.53;10.37;;;1.10;99.90;;;;;;5115356;27;20035;-86
2024/01/06 05:58:22;;;;;;;17.20;10.63;;;1.10;99.90;;;;;;5098213;27;20083;-86
2024/01/06 06:00:48;;;;;;;15.03;9.77;;;1.10;99.90;;;;;;5115838;27;20039;-87
2024/01/06 06:03:14;;;;;;;17.20;10.70;;;1.10;99.90;;;;;;5098004;27;20035;-86
2024/01/06 06:05:39;;;;;;;16.40;10.40;;;1.10;99.90;;;;;;5115050;27;20031;-85
2024/01/06 06:08:05;;;;;;;17.67;10.53;;;1.10;99.90;;;;;;5114955;27;20498;-87
2024/01/06 06:10:40;;;;;;;18.47;11.10;;;1.10;99.90;;;;;;5098689;27;20117;-87
2024/01/06 06:13:09;;;;;;;16.07;10.23;;;1.10;99.90;;;;;;5098012;27;20058;-86
2024/01/06 06:15:35;;;;;;;21.30;10.50;;;1.10;99.90;;;;;;5133540;27;20038;-85
2024/01/06 06:18:00;;;;;;;15.97;10.37;;;1.10;99.90;;;;;;5104851;28;20036;-85
2024/01/06 06:20:26;;;;;;;17.50;10.70;;;1.10;99.90;;;;;;5106060;27;20031;-87
2024/01/06 06:22:52;;;;;;;17.20;10.60;;;1.10;99.90;;;;;;5114717;27;20088;-87
2024/01/06 06:25:17;;;;;;;19.57;10.90;;;1.10;99.90;;;;;;5097869;27;20035;-86
2024/01/06 06:27:43;;;;;;;16.50;10.57;;;1.10;99.90;;;;;;5114865;27;20566;-86
2024/01/06 06:30:09;;;;;;;17.27;11.30;;;1.10;99.90;;;;;;5087264;27;20035;-86
2024/01/06 06:32:35;;;;;;;17.92;10.10;;;1.10;99.90;;;;;;5082972;28;20039;-85
2024/01/06 06:35:01;;;;;;;16.97;10.77;;;1.10;99.90;;;;;;5112844;27;20545;-86
2024/01/06 06:37:27;;;;;;;16.77;11.33;;;1.10;99.90;;;;;;5115122;27;20042;-85
2024/01/06 06:39:52;;;;;;;18.10;11.30;;;1.10;99.90;;;;;;5114560;27;20043;-86
2024/01/06 06:42:18;;;;;;;17.73;11.07;;;1.10;99.90;;;;;;5115184;27;20517;-86
2024/01/06 06:44:44;;;;;;;17.50;10.67;;;1.20;99.90;;;;;;5097322;27;20031;-86
2024/01/06 06:47:09;;;;;;;18.03;11.37;;;1.20;99.90;;;;;;5097467;27;20129;-86
2024/01/06 06:49:35;;;;;;;20.47;11.40;;;1.20;99.90;;;;;;5110712;28;20050;-86
2024/01/06 06:52:02;;;;;;;16.90;10.97;;;1.20;99.90;;;;;;5094441;27;20513;-86
2024/01/06 06:54:28;;;;;;;18.83;11.43;;;1.20;99.90;;;;;;5114322;27;20043;-86
2024/01/06 06:56:54;;;;;;;17.48;10.90;;;1.20;99.90;;;;;;5114086;27;20035;-86
2024/01/06 06:59:20;;;;;;;18.00;11.60;;;1.20;99.90;;;;;;5097646;27;20387;-86
2024/01/06 07:01:45;;;;;;;17.10;11.87;;;1.20;99.90;;;;;;5097430;27;20042;-86
2024/01/06 07:04:11;;;;;;;16.70;11.50;;;1.20;99.90;;;;;;5113454;27;20035;-86
2024/01/06 07:06:37;;;;;;;18.20;11.57;;;1.20;99.90;;;;;;5113771;27;20046;-87
2024/01/06 07:09:03;;;;;;;16.73;11.40;;;1.20;99.90;;;;;;5113453;27;20066;-86
2024/01/06 07:11:28;;;;;;;21.73;12.83;;;1.20;99.90;;;;;;5096804;27;20035;-86
2024/01/06 07:13:54;;;;;;;19.57;12.60;;;1.20;99.90;;;;;;5113677;27;20473;-86
2024/01/06 07:16:19;;;;;;;18.77;12.03;;;1.20;99.90;;;;;;5113946;27;20031;-85
2024/01/06 07:18:45;;;;;;;17.97;11.30;;;1.20;99.90;;;;;;5114263;27;20442;-86
2024/01/06 07:21:12;;;;;;;21.13;12.47;;;1.20;99.90;;;;;;5096833;27;20038;-86
2024/01/06 07:23:38;;;;;;;19.10;12.30;;;1.20;99.90;;;;;;5098930;28;20386;-86
2024/01/06 07:26:03;;;;;;;21.37;12.67;;;1.30;99.90;;;;;;5093764;27;20039;-85
2024/01/06 07:28:29;;;;;;;23.47;13.20;;;1.20;99.90;;;;;;5113662;27;20031;-86
2024/01/06 07:30:55;;;;;;;20.67;12.87;;;1.20;99.90;;;;;;5113246;27;20039;-86
2024/01/06 07:33:20;;;;;;;21.77;12.90;;;1.30;99.90;;;;;;5113380;27;20035;-86
2024/01/06 07:35:46;;;;;;;24.17;13.20;;;1.30;99.90;;;;;;5096167;27;20032;-86
2024/01/06 07:38:13;;;;;;;20.65;13.10;;;1.30;99.90;;;;;;5113458;27;20113;-86
2024/01/06 07:40:39;;;;;;;19.87;12.33;;;1.30;99.90;;;;;;5103607;28;20343;-87
2024/01/06 07:43:04;;;;;;;23.83;13.77;;;1.30;99.90;;;;;;5090016;28;20043;-86
2024/01/06 07:45:31;;;;;;;21.57;13.50;;;1.30;99.90;;;;;;5101528;28;20544;-86
2024/01/06 07:48:01;;;;;;;23.25;14.25;;;1.30;99.90;;;;;;5093161;28;20065;-86
2024/01/06 07:50:27;;;;;;;22.53;13.67;;;1.30;99.90;;;;;;5093612;28;20027;-86
2024/01/06 07:52:54;;;;;;;22.67;13.80;;;1.30;99.90;;;;;;5093197;28;20388;-86
2024/01/06 07:55:19;;;;;;;24.73;14.80;;;1.20;99.90;;;;;;5102482;28;20062;-87
2024/01/06 07:57:45;;;;;;;23.37;14.73;;;1.30;99.90;;;;;;5093359;28;20073;-86
2024/01/06 08:00:15;;;;;;;29.27;15.33;;;1.20;99.90;;;;;;5079549;28;20027;-86
2024/01/06 08:02:41;;;;;;;22.83;14.03;;;1.30;99.90;;;;;;5092596;28;20039;-87
2024/01/06 08:05:07;;;;;;;23.80;14.63;;;1.30;99.90;;;;;;5103310;27;20046;-86
2024/01/06 08:07:33;;;;;;;26.53;15.63;;;2.00;99.90;;;;;;5113133;28;20039;-86
2024/01/06 08:09:58;;;;;;;23.93;15.00;;;1.30;99.90;;;;;;5095755;28;20050;-86
2024/01/06 08:12:24;;;;;;;25.85;14.88;;;1.30;99.90;;;;;;5113400;28;20443;-87
2024/01/06 08:14:50;;;;;;;24.50;14.23;;;1.30;99.90;;;;;;5096435;28;20490;-86
2024/01/06 08:17:15;;;;;;;24.85;14.88;;;1.30;99.90;;;;;;5095917;28;20070;-86
2024/01/06 08:19:41;;;;;;;26.25;15.55;;;1.30;99.90;;;;;;5112643;27;20410;-87
2024/01/06 08:22:07;;;;;;;24.20;14.60;;;1.30;99.90;;;;;;5115664;27;20043;-86
2024/01/06 08:24:33;;;;;;;23.33;15.37;;;1.30;99.90;;;;;;5111309;28;20410;-84
2024/01/06 08:26:59;;;;;;;25.13;15.17;;;1.30;99.90;;;;;;5106024;27;20047;-86
2024/01/06 08:29:25;;;;;;;25.60;16.23;;;1.30;99.90;;;;;;5099925;27;20573;-87
2024/01/06 08:31:52;;;;;;;27.50;15.73;;;1.30;99.90;;;;;;5117215;27;20045;-87
2024/01/06 08:34:18;;;;;;;24.33;14.40;;;1.30;99.90;;;;;;5108980;27;20078;-86
2024/01/06 08:36:44;;;;;;;24.97;15.10;;;1.30;99.90;;;;;;5092589;28;20028;-86
2024/01/06 08:39:10;;;;;;;23.67;14.47;;;1.30;99.90;;;;;;5086074;28;20031;-85
2024/01/06 08:41:35;;;;;;;24.00;14.68;;;1.30;99.90;;;;;;5094323;28;20493;-86
2024/01/06 08:44:01;;;;;;;23.95;14.57;;;1.40;99.90;;;;;;5094467;28;20036;-86
2024/01/06 08:46:26;;;;;;;27.23;15.63;;;1.40;99.90;;;;;;5110097;27;20082;-87
2024/01/06 08:48:52;;;;;;;24.17;14.70;;;1.40;99.90;;;;;;5083505;27;20144;-86
2024/01/06 08:51:20;;;;;;;24.23;14.87;;;1.40;99.90;;;;;;5097588;27;20475;-87
2024/01/06 08:53:46;;;;;;;23.57;15.47;;;1.40;99.90;;;;;;5076970;28;20107;-86
2024/01/06 08:56:11;;;;;;;24.23;14.93;;;1.40;99.90;;;;;;5109729;27;20406;-86
2024/01/06 08:58:37;;;;;;;25.60;15.07;;;1.40;99.90;;;;;;5114882;27;20039;-85
2024/01/06 09:01:03;;;;;;;22.97;13.97;;;1.40;99.90;;;;;;5114472;27;20095;-86
2024/01/06 09:03:28;;;;;;;25.58;15.20;;;1.40;99.90;;;;;;5116389;27;20117;-86
2024/01/06 09:05:56;;;;;;;27.03;15.67;;;1.40;99.90;;;;;;5089911;27;20042;-86
2024/01/06 09:08:22;;;;;;;24.13;14.70;;;1.40;99.90;;;;;;5116335;27;20478;-85
2024/01/06 09:10:50;;;;;;;24.33;15.27;;;1.50;99.90;;;;;;5116704;27;20042;-85
2024/01/06 09:13:16;;;;;;;24.65;14.52;;;1.50;99.90;;;;;;5115989;27;20039;-86
2024/01/06 09:15:42;;;;;;;26.30;14.75;;;1.80;99.90;;;;;;5099272;27;20133;-85
2024/01/06 09:18:08;;;;;;;26.83;15.07;;;1.50;99.90;;;;;;5116277;27;20038;-86
2024/01/06 09:20:33;;;;;;;23.48;14.43;;;1.50;99.90;;;;;;5115924;27;20031;-86
2024/01/06 09:22:59;;;;;;;23.30;14.37;;;1.50;99.90;;;;;;5106871;27;20494;-86
2024/01/06 09:25:24;;;;;;;25.47;14.70;;;1.50;99.90;;;;;;5099065;27;20035;-86
2024/01/06 09:27:51;;;;;;;23.53;13.80;;;1.50;99.90;;;;;;5099335;27;20108;-86
2024/01/06 09:34:02;;;;;;;22.75;13.48;;;0.50;99.90;;;;;;5055913;27;20581;-86
2024/01/06 09:36:29;;;;;;;21.87;13.80;;;1.50;99.90;;;;;;5134307;27;20130;-85
2024/01/06 09:38:55;;;;;;;22.10;13.03;;;2.40;99.90;;;;;;5098164;27;20486;-86
2024/01/06 09:41:21;;;;;;;22.05;14.10;;;1.50;99.90;;;;;;5115411;27;20083;-86
2024/01/06 09:43:47;;;;;;;20.73;13.23;;;1.50;99.90;;;;;;5115666;27;20043;-87
2024/01/06 09:46:16;;;;;;;22.30;13.80;;;1.60;99.90;;;;;;5097579;27;20379;-86
2024/01/06 09:48:45;;;;;;;23.63;13.43;;;1.60;99.90;;;;;;5113623;27;20050;-86
2024/01/06 09:51:11;;;;;;;23.30;13.80;;;1.60;99.90;;;;;;5113575;27;20050;-86
2024/01/06 09:53:47;;;;;;;24.03;13.70;;;1.60;99.90;;;;;;5113634;27;20047;-86
2024/01/06 09:56:15;;;;;;;20.87;13.07;;;1.60;99.90;;;;;;5113846;27;20115;-86
2024/01/06 09:58:41;;;;;;;22.50;13.65;;;1.70;99.90;;;;;;5114586;27;20108;-86
2024/01/06 10:01:08;;;;;;;21.85;13.68;;;1.70;99.90;;;;;;5083226;28;20036;-87
2024/01/06 10:03:35;;;;;;;21.33;13.50;;;1.60;99.90;;;;;;5089168;27;20042;-86
2024/01/06 10:06:03;;;;;;;19.85;13.30;;;1.60;99.90;;;;;;5098670;27;20447;-86
2024/01/06 10:08:35;;;;;;;22.80;13.85;;;1.70;99.90;;;;;;5086691;28;20482;-86
2024/01/06 10:11:01;;;;;;;21.95;13.68;;;1.70;99.90;;;;;;5100382;27;20157;-86
2024/01/06 10:13:28;;;;;;;21.02;13.63;;;1.60;99.90;;;;;;5107228;28;20099;-85
2024/01/06 10:15:54;;;;;;;21.92;14.07;;;1.60;99.90;;;;;;5101815;27;20036;-87
2024/01/06 10:18:20;;;;;;;22.80;13.95;;;1.60;99.90;;;;;;5086642;28;20062;-87
2024/01/06 10:20:47;;;;;;;23.08;14.50;;;1.70;99.90;;;;;;5102091;28;20491;-87
2024/01/06 10:23:13;;;;;;;22.43;13.73;;;1.70;99.90;;;;;;5088413;27;20035;-87
2024/01/06 10:25:39;;;;;;;22.17;14.50;;;1.60;99.90;;;;;;5101132;28;20034;-87
2024/01/06 10:28:04;;;;;;;22.63;13.88;;;1.60;99.90;;;;;;5098893;27;20038;-86
2024/01/06 10:30:30;;;;;;;24.33;14.52;;;1.70;99.90;;;;;;5085235;28;20032;-87
2024/01/06 10:32:56;;;;;;;22.92;14.40;;;1.60;99.90;;;;;;5101379;27;20039;-88
2024/01/06 10:35:24;;;;;;;23.33;14.30;;;1.60;99.90;;;;;;5090190;27;20039;-87
2024/01/06 10:37:50;;;;;;;23.25;14.90;;;1.60;99.90;;;;;;5104860;27;20046;-87
2024/01/06 10:40:16;;;;;;;22.33;14.40;;;1.70;99.90;;;;;;5099294;27;20027;-87
2024/01/06 10:42:43;;;;;;;21.33;13.95;;;1.60;99.90;;;;;;5105074;27;20225;-87
2024/01/06 10:45:10;;;;;;;22.93;13.30;;;1.60;99.90;;;;;;5105546;27;20039;-87
2024/01/06 10:47:37;;;;;;;21.73;13.98;;;1.60;99.90;;;;;;5100854;28;20091;-87
2024/01/06 10:50:03;;;;;;;22.38;14.07;;;1.60;99.90;;;;;;5083478;27;20054;-87
2024/01/06 10:52:30;;;;;;;25.20;15.23;;;1.60;99.90;;;;;;5085787;28;20067;-88
2024/01/06 10:54:56;;;;;;;22.83;14.75;;;1.60;99.90;;;;;;5103318;27;20042;-86
2024/01/06 10:57:23;;;;;;;22.02;14.02;;;1.60;99.90;;;;;;5097770;28;20027;-87
2024/01/06 10:59:52;;;;;;;23.87;13.93;;;1.60;99.90;;;;;;5085313;28;20035;-87
2024/01/06 11:02:18;;;;;;;22.15;13.75;;;1.60;99.90;;;;;;5081504;27;20031;-86
2024/01/06 11:04:48;;;;;;;23.13;13.80;;;1.60;99.90;;;;;;5095532;28;20042;-87
2024/01/06 11:07:17;;;;;;;24.17;13.35;;;1.60;99.90;;;;;;5080068;28;20036;-87
2024/01/06 11:10:18;;;;;;;21.83;12.80;;;1.60;99.90;;;;;;5107580;27;20047;-87
2024/01/06 11:12:44;;;;;;;18.63;12.43;;;1.60;99.90;;;;;;5101684;27;20042;-88
2024/01/06 11:15:09;;;;;;;19.05;12.00;;;1.60;99.90;;;;;;5099241;27;20043;-87
2024/01/06 11:17:57;;;;;;;18.10;11.60;;;1.60;99.90;;;;;;5097328;27;20051;-87
2024/01/06 11:20:23;;;;;;;21.10;12.32;;;1.60;99.90;;;;;;5097604;28;20062;-87
2024/01/06 11:22:50;;;;;;;17.73;11.20;;;1.60;99.90;;;;;;5093612;28;20483;-87
2024/01/06 11:25:18;;;;;;;18.52;11.77;;;2.30;99.90;;;;;;5080009;28;20028;-87
2024/01/06 11:27:45;;;;;;;21.27;12.33;;;1.60;99.90;;;;;;5083302;28;20388;-86
2024/01/06 11:30:26;;;;;;;20.02;11.23;;;1.60;99.90;;;;;;5106198;27;20074;-87
2024/01/06 11:32:58;;;;;;;17.50;11.85;;;1.60;99.90;;;;;;5093816;28;20039;-86
2024/01/06 11:35:29;;;;;;;19.40;11.63;;;1.60;99.90;;;;;;5086646;27;20092;-86
2024/01/06 11:37:57;;;;;;;16.67;11.15;;;1.60;99.90;;;;;;5088797;28;20541;-87
2024/01/06 11:40:24;;;;;;;17.23;11.60;;;1.70;99.90;;;;;;5104817;27;20574;-86
2024/01/06 11:43:09;;;;;;;18.90;11.35;;;1.70;99.90;;;;;;5088919;28;20066;-86
2024/01/06 11:45:37;;;;;;;15.68;11.00;;;2.80;99.90;;;;;;5093587;28;20467;-89
2024/01/06 11:48:07;;;;;;;17.75;11.45;;;1.70;99.90;;;;;;5101044;27;20099;-86
2024/01/06 11:50:35;;;;;;;16.30;11.20;;;1.70;99.90;;;;;;5093371;28;20055;-88
2024/01/06 11:53:02;;;;;;;15.73;10.48;;;1.70;99.90;;;;;;5095049;28;20038;-86
2024/01/06 11:55:28;;;;;;;13.88;9.82;;;1.70;99.90;;;;;;5081985;28;20036;-86
2024/01/06 11:58:05;;;;;;;13.20;9.32;;;1.70;99.90;;;;;;5093852;28;20398;-86
2024/01/06 12:00:32;;;;;;;14.30;9.05;;;1.80;99.90;;;;;;5107147;28;20031;-88
2024/01/06 12:02:59;;;;;;;11.95;8.25;;;1.80;99.90;;;;;;5093601;28;20036;-88
2024/01/06 12:05:26;;;;;;;12.45;8.80;;;2.50;99.90;;;;;;5084878;28;20040;-87
2024/01/06 12:08:00;;;;;;;12.02;8.25;;;1.70;99.90;;;;;;5096287;28;20058;-86
2024/01/06 12:10:27;;;;;;;13.67;9.30;;;1.70;99.90;;;;;;5082113;28;20363;-85
2024/01/06 12:13:04;;;;;;;13.27;8.90;;;1.80;99.90;;;;;;5097356;28;20036;-86
2024/01/06 12:15:31;;;;;;;13.32;8.55;;;1.80;99.90;;;;;;5106585;28;20399;-86
2024/01/06 12:17:57;;;;;;;13.07;8.90;;;1.80;99.90;;;;;;5093200;28;20035;-88
2024/01/06 12:20:24;;;;;;;12.87;8.93;;;1.70;99.90;;;;;;5093322;28;20039;-88
2024/01/06 12:22:53;;;;;;;13.27;9.23;;;1.70;99.90;;;;;;5093171;28;20032;-87
2024/01/06 12:25:24;;;;;;;13.77;10.03;;;1.70;99.90;;;;;;5084524;28;20043;-87
2024/01/06 12:27:50;;;;;;;12.23;8.70;;;1.60;99.90;;;;;;5105042;28;20244;-85
2024/01/06 12:30:21;;;;;;;12.88;8.95;;;2.60;99.90;;;;;;5104062;28;20122;-88
2024/01/06 12:32:49;;;;;;;12.77;8.85;;;1.60;99.90;;;;;;5113439;28;20494;-85
2024/01/06 12:35:15;;;;;;;13.20;8.93;;;1.60;99.90;;;;;;5093027;28;20039;-86
2024/01/06 12:37:44;;;;;;;11.57;8.25;;;1.60;99.90;;;;;;5108502;28;20023;-87